createdAt,value
2022-08-27T00:04:55.987Z,58.82
2022-08-27T00:09:57.493Z,58.47
2022-08-27T00:15:00.439Z,58.92
2022-08-27T00:20:02.339Z,58.84
2022-08-27T00:25:04.721Z,58.91
2022-08-27T00:30:07.652Z,58.83
2022-08-27T00:35:09.262Z,59.04
2022-08-27T00:40:13.738Z,58.80
2022-08-27T00:45:16.671Z,58.67
2022-08-27T00:50:28.882Z,58.67
2022-08-27T00:55:33.387Z,59.06
2022-08-27T01:00:36.980Z,59.13
2022-08-27T01:05:38.590Z,59.60
2022-08-27T01:10:40.253Z,59.05
2022-08-27T01:15:41.784Z,58.98
2022-08-27T01:20:55.507Z,59.19
2022-08-27T01:25:57.447Z,59.09
2022-08-27T01:30:58.954Z,58.87
2022-08-27T01:36:00.543Z,58.95
2022-08-27T01:41:02.106Z,59.34
2022-08-27T01:46:03.618Z,59.06
2022-08-27T01:51:05.163Z,59.06
2022-08-27T01:56:06.731Z,59.14
2022-08-27T02:01:10.023Z,59.25
2022-08-27T02:06:11.676Z,59.28
2022-08-27T02:11:13.178Z,58.97
2022-08-27T02:16:14.728Z,59.30
2022-08-27T02:21:17.906Z,58.61
2022-08-27T02:26:19.395Z,58.62
2022-08-27T02:31:21.347Z,58.62
2022-08-27T02:36:22.907Z,58.47
2022-08-27T02:41:24.587Z,58.81
2022-08-27T02:46:26.799Z,58.90
2022-08-27T02:51:28.370Z,58.74
2022-08-27T02:56:29.915Z,58.41
2022-08-27T03:01:31.512Z,58.66
2022-08-27T03:06:33.095Z,58.71
2022-08-27T03:11:34.684Z,58.22
2022-08-27T03:16:36.942Z,58.55
2022-08-27T03:21:38.463Z,58.32
2022-08-27T03:26:40.006Z,58.57
2022-08-27T03:31:41.554Z,59.06
2022-08-27T03:36:43.663Z,58.57
2022-08-27T03:41:55.141Z,58.81
2022-08-27T03:46:57.233Z,59.10
2022-08-27T03:51:58.836Z,58.82
2022-08-27T03:57:00.354Z,58.99
2022-08-27T04:02:01.954Z,59.22
2022-08-27T04:07:03.678Z,58.81
2022-08-27T04:12:05.718Z,58.72
2022-08-27T04:17:07.232Z,59.17
2022-08-27T04:22:08.803Z,59.26
2022-08-27T04:27:11.311Z,59.47
2022-08-27T04:32:12.879Z,59.90
2022-08-27T04:37:14.374Z,59.76
2022-08-27T04:42:19.331Z,59.66
2022-08-27T04:47:20.836Z,59.99
2022-08-27T04:52:22.331Z,60.04
2022-08-27T04:57:23.836Z,59.83
2022-08-27T05:02:27.413Z,60.44
2022-08-27T05:07:28.914Z,60.26
2022-08-27T05:12:30.419Z,60.37
2022-08-27T05:17:32.719Z,60.83
2022-08-27T05:22:34.212Z,60.57
2022-08-27T05:27:36.319Z,60.69
2022-08-27T05:32:37.827Z,60.17
2022-08-27T05:37:39.343Z,60.72
2022-08-27T05:42:40.848Z,60.43
2022-08-27T05:47:44.829Z,60.65
2022-08-27T05:52:46.506Z,60.72
2022-08-27T05:57:48.017Z,61.07
2022-08-27T06:02:49.611Z,60.72
2022-08-27T06:07:51.174Z,60.77
2022-08-27T06:12:56.715Z,61.25
2022-08-27T06:17:58.639Z,61.71
2022-08-27T06:23:00.726Z,61.69
2022-08-27T06:28:02.792Z,61.50
2022-08-27T06:33:04.356Z,61.47
2022-08-27T06:38:05.859Z,61.17
2022-08-27T06:43:07.384Z,61.71
2022-08-27T06:48:08.891Z,61.42
2022-08-27T06:53:10.537Z,61.27
2022-08-27T06:58:12.557Z,61.46
2022-08-27T07:03:14.662Z,61.82
2022-08-27T07:08:16.164Z,61.80
2022-08-27T07:13:17.681Z,61.61
2022-08-27T07:18:20.260Z,61.66
2022-08-27T07:23:28.854Z,61.57
2022-08-27T07:28:30.355Z,61.57
2022-08-27T07:33:31.891Z,61.03
2022-08-27T07:38:34.206Z,61.14
2022-08-27T07:43:56.223Z,60.42
2022-08-27T07:48:58.123Z,61.06
2022-08-27T07:53:59.790Z,61.43
2022-08-27T07:59:01.320Z,61.30
2022-08-27T08:04:02.923Z,60.64
2022-08-27T08:09:05.652Z,61.20
2022-08-27T08:14:07.186Z,60.36
2022-08-27T08:19:09.306Z,60.73
2022-08-27T08:24:10.815Z,60.48
2022-08-27T08:29:17.681Z,61.29
2022-08-27T08:34:19.976Z,61.18
2022-08-27T08:39:21.896Z,61.13
2022-08-27T08:44:32.001Z,61.08
2022-08-27T08:50:04.907Z,60.42
2022-08-27T08:55:40.102Z,61.44
2022-08-27T09:00:42.823Z,61.02
2022-08-27T09:05:48.006Z,60.26
2022-08-27T09:10:52.435Z,61.09
2022-08-27T09:15:56.744Z,61.05
2022-08-27T09:21:04.916Z,60.67
2022-08-27T09:26:18.931Z,60.48
2022-08-27T09:31:20.761Z,61.17
2022-08-27T09:36:23.915Z,60.59
2022-08-27T09:41:28.321Z,60.68
2022-08-27T09:46:29.891Z,60.93
2022-08-27T09:51:31.413Z,61.39
2022-08-27T09:56:39.943Z,61.00
2022-08-27T10:01:53.319Z,60.99
2022-08-27T10:06:54.843Z,60.86
2022-08-27T10:12:25.054Z,60.87
2022-08-27T10:17:36.194Z,61.29
2022-08-27T10:22:47.842Z,60.86
2022-08-27T10:28:14.657Z,60.91
2022-08-27T10:33:23.656Z,60.91
2022-08-27T10:38:42.457Z,60.74
2022-08-27T10:44:05.483Z,60.72
2022-08-27T10:49:51.301Z,60.63
2022-08-27T10:55:01.080Z,61.17
2022-08-27T11:00:10.823Z,61.41
2022-08-27T11:05:19.682Z,60.91
2022-08-27T11:10:31.190Z,61.57
2022-08-27T11:15:38.271Z,60.46
2022-08-27T11:20:43.651Z,60.63
2022-08-27T11:25:53.299Z,60.87
2022-08-27T11:31:03.176Z,61.19
2022-08-27T11:36:23.293Z,61.02
2022-08-27T11:41:45.403Z,60.88
2022-08-27T11:46:49.050Z,61.25
2022-08-27T11:52:03.052Z,60.49
2022-08-27T11:57:04.547Z,60.79
2022-08-27T12:02:17.875Z,60.72
2022-08-27T12:07:21.693Z,60.65
2022-08-27T12:12:41.448Z,60.77
2022-08-27T12:18:01.059Z,60.30
2022-08-27T12:23:42.703Z,61.13
2022-08-27T12:28:44.211Z,60.84
2022-08-27T12:33:46.762Z,60.76
2022-08-27T12:38:56.125Z,61.01
2022-08-27T12:44:08.544Z,60.49
2022-08-27T12:49:38.086Z,60.62
2022-08-27T12:54:43.632Z,60.61
2022-08-27T12:59:44.987Z,60.39
2022-08-27T13:04:47.962Z,60.21
2022-08-27T13:09:49.471Z,60.33
2022-08-27T13:14:57.091Z,59.91
2022-08-27T13:19:59.867Z,60.17
2022-08-27T13:25:01.423Z,60.17
2022-08-27T13:30:06.547Z,60.50
2022-08-27T13:35:08.064Z,60.13
2022-08-27T13:40:10.411Z,60.05
2022-08-27T13:45:11.980Z,60.06
2022-08-27T13:50:26.979Z,59.99
2022-08-27T13:55:28.508Z,59.67
2022-08-27T14:00:32.106Z,59.90
2022-08-27T14:05:36.791Z,59.96
2022-08-27T14:10:39.630Z,60.42
2022-08-27T14:15:43.367Z,59.90
2022-08-27T14:20:44.933Z,59.64
2022-08-27T14:25:46.727Z,59.26
2022-08-27T14:30:52.041Z,59.44
2022-08-27T14:35:55.066Z,59.28
2022-08-27T14:40:57.666Z,59.57
2022-08-27T14:45:59.215Z,59.78
2022-08-27T14:51:02.803Z,59.81
2022-08-27T14:56:04.495Z,59.12
2022-08-27T15:01:06.003Z,59.72
2022-08-27T15:06:07.531Z,59.65
2022-08-27T15:11:16.967Z,59.56
2022-08-27T15:16:32.753Z,59.10
2022-08-27T15:21:35.427Z,59.33
2022-08-27T15:26:37.008Z,59.66
2022-08-27T15:31:38.914Z,59.60
2022-08-27T15:36:40.736Z,59.71
2022-08-27T15:42:11.433Z,59.55
2022-08-27T15:47:04.270Z,59.45
2022-08-27T15:52:05.763Z,59.54
2022-08-27T15:57:07.195Z,59.84
2022-08-27T16:02:14.475Z,59.85
2022-08-27T16:07:16.341Z,59.75
2022-08-27T16:12:27.493Z,60.17
2022-08-27T16:17:29.125Z,60.15
2022-08-27T16:22:30.525Z,60.11
2022-08-27T16:27:32.609Z,59.81
2022-08-27T16:32:34.030Z,59.71
2022-08-27T16:37:35.482Z,59.98
2022-08-27T16:42:38.637Z,59.73
2022-08-27T16:48:00.016Z,59.87
2022-08-27T16:53:22.528Z,60.41
2022-08-27T16:58:25.365Z,59.95
2022-08-27T17:03:26.857Z,59.81
2022-08-27T17:08:30.179Z,59.96
2022-08-27T17:13:34.301Z,59.78
2022-08-27T17:18:35.833Z,59.76
2022-08-27T17:23:45.500Z,60.03
2022-08-27T17:28:47.006Z,59.76
2022-08-27T17:33:52.232Z,59.79
2022-08-27T17:38:53.842Z,60.59
2022-08-27T17:43:57.686Z,60.22
2022-08-27T17:48:59.566Z,60.21
2022-08-27T17:54:01.645Z,59.84
2022-08-27T17:59:03.148Z,59.76
2022-08-27T18:04:06.001Z,60.14
2022-08-27T18:09:07.476Z,59.71
2022-08-27T18:14:09.189Z,59.95
2022-08-27T18:19:10.606Z,60.52
2022-08-27T18:24:12.746Z,60.27
2022-08-27T18:29:14.210Z,60.23
2022-08-27T18:34:20.547Z,60.27
2022-08-27T18:39:25.814Z,60.01
2022-08-27T18:44:27.511Z,60.07
2022-08-27T18:49:28.937Z,59.80
2022-08-27T18:54:30.361Z,59.90
2022-08-27T18:59:32.180Z,60.16
2022-08-27T19:04:33.620Z,59.74
2022-08-27T19:09:35.105Z,59.76
2022-08-27T19:14:36.513Z,59.84
2022-08-27T19:19:38.432Z,60.26
2022-08-27T19:24:40.632Z,60.24
2022-08-27T19:29:42.076Z,59.47
2022-08-27T19:34:43.492Z,59.97
2022-08-27T19:39:45.381Z,59.79
2022-08-27T19:44:47.297Z,59.72
2022-08-27T19:49:49.635Z,60.05
2022-08-27T19:55:12.557Z,59.81
2022-08-27T20:00:13.363Z,59.81
2022-08-27T20:05:18.978Z,60.23
2022-08-27T20:10:23.272Z,59.70
2022-08-27T20:15:33.440Z,60.56
2022-08-27T20:20:35.900Z,59.96
2022-08-27T20:25:37.516Z,60.70
2022-08-27T20:30:39.953Z,60.25
2022-08-27T20:35:41.392Z,60.29
2022-08-27T20:40:42.901Z,60.40
2022-08-27T20:45:44.622Z,60.11
2022-08-27T20:50:46.232Z,60.30
2022-08-27T20:55:47.680Z,60.33
2022-08-27T21:00:51.151Z,60.44
2022-08-27T21:05:52.628Z,60.28
2022-08-27T21:10:56.628Z,60.47
2022-08-27T21:15:58.101Z,60.67
2022-08-27T21:21:00.043Z,60.85
2022-08-27T21:26:09.904Z,60.66
2022-08-27T21:31:11.402Z,60.23
2022-08-27T21:36:12.948Z,60.70
2022-08-27T21:41:14.348Z,61.06
2022-08-27T21:46:15.923Z,60.36
2022-08-27T21:51:21.141Z,60.32
2022-08-27T21:56:26.756Z,60.79
2022-08-27T22:01:28.300Z,60.55
2022-08-27T22:06:29.957Z,60.54
2022-08-27T22:11:31.357Z,60.38
2022-08-27T22:16:32.853Z,60.44
2022-08-27T22:21:34.369Z,60.55
2022-08-27T22:26:35.778Z,60.69
2022-08-27T22:31:37.546Z,60.63
2022-08-27T22:36:39.471Z,60.20
2022-08-27T22:41:41.812Z,60.50
2022-08-27T22:46:47.214Z,60.47
2022-08-27T22:51:51.405Z,59.88
2022-08-27T22:56:52.813Z,60.28
2022-08-27T23:01:55.173Z,60.09
2022-08-27T23:06:57.076Z,60.24
2022-08-27T23:11:58.864Z,60.25
2022-08-27T23:17:00.376Z,60.29
2022-08-27T23:22:01.837Z,60.12
2022-08-27T23:27:40.744Z,60.50
2022-08-27T23:32:46.439Z,60.16
2022-08-27T23:37:52.057Z,60.25
2022-08-27T23:42:53.472Z,60.53
2022-08-27T23:47:54.884Z,60.52
2022-08-27T23:52:56.320Z,60.23
2022-08-27T23:57:57.877Z,60.33
